Time;durP1;ratioP1;P1;durP2;ratioP2;P2;SDS_P1;SDS_P2;PMS_P1;PMS_P2;Temp;Humidity;BMP_temperature;BMP_pressure;BME280_temperature;BME280_humidity;BME280_pressure;Samples;Min_cycle;Max_cycle;Signal;HPM_P1;HPM_P2
2021/07/14 00:01:32;;;;;;;24.10;13.90;;;;;;;;;;4331738;33;20584;-83
2021/07/14 00:03:59;;;;;;;21.95;13.35;;;;;;;;;;4344188;33;20198;-83
2021/07/14 00:06:34;;;;;;;22.37;13.13;;;;;;;;;;4341876;33;20174;-83
2021/07/14 00:09:10;;;;;;;19.65;12.60;;;;;;;;;;4344018;32;20186;-83
2021/07/14 00:11:45;;;;;;;20.05;12.80;;;;;;;;;;4344340;33;20163;-83
2021/07/14 00:17:48;;;;;;;24.05;13.23;;;;;;;;;;4360366;32;20582;-82
2021/07/14 00:23:30;;;;;;;;;;;;;;;;;;;;;
2021/07/14 00:25:56;;;;;;;23.40;13.15;;;;;;;;;;4345171;33;20143;-83
2021/07/14 00:28:28;;;;;;;26.12;15.27;;;;;;;;;;4343805;33;20193;-82
2021/07/14 00:30:59;;;;;;;25.15;14.00;;;;;;;;;;4343916;33;20234;-82
2021/07/14 00:33:26;;;;;;;25.37;14.23;;;;;;;;;;4344257;33;20147;-82
2021/07/14 00:36:19;;;;;;;25.58;14.43;;;;;;;;;;4343285;33;20148;-82
2021/07/14 00:41:50;;;;;;;26.73;15.35;;;;;;;;;;4344712;33;20253;-82
2021/07/14 00:44:54;;;;;;;27.98;15.45;;;;;;;;;;4343844;33;20144;-83
2021/07/14 00:47:25;;;;;;;29.90;15.82;;;;;;;;;;4343971;33;20156;-82
2021/07/14 00:50:00;;;;;;;34.85;16.05;;;;;;;;;;4343387;33;20151;-82
2021/07/14 00:52:26;;;;;;;34.40;19.33;;;;;;;;;;4343402;33;20147;-82
2021/07/14 00:54:58;;;;;;;38.22;22.35;;;;;;;;;;4346669;32;20179;-82
2021/07/14 00:57:28;;;;;;;42.95;22.20;;;;;;;;;;4343620;33;20155;-82
2021/07/14 00:59:54;;;;;;;40.10;20.95;;;;;;;;;;4343386;33;20151;-82
2021/07/14 01:02:23;;;;;;;39.35;22.40;;;;;;;;;;4343453;33;20182;-82
2021/07/14 01:05:07;;;;;;;44.72;20.70;;;;;;;;;;4343191;32;20214;-83
2021/07/14 01:08:30;;;;;;;38.17;20.15;;;;;;;;;;4343032;32;20164;-83
2021/07/14 01:11:08;;;;;;;40.80;20.67;;;;;;;;;;4343277;33;20186;-82
2021/07/14 01:13:37;;;;;;;46.13;23.65;;;;;;;;;;4343452;33;20151;-82
2021/07/14 01:16:29;;;;;;;43.45;22.33;;;;;;;;;;4342921;33;20208;-82
2021/07/14 01:19:00;;;;;;;44.22;20.85;;;;;;;;;;4344232;32;20507;-82
2021/07/14 01:21:28;;;;;;;40.22;21.40;;;;;;;;;;4342962;33;20163;-82
2021/07/14 01:24:14;;;;;;;43.65;22.30;;;;;;;;;;4342846;33;20155;-82
2021/07/14 01:27:05;;;;;;;50.45;22.42;;;;;;;;;;4342897;32;20182;-82
2021/07/14 01:29:33;;;;;;;48.33;23.83;;;;;;;;;;4349220;32;20163;-82
2021/07/14 01:31:59;;;;;;;51.97;24.20;;;;;;;;;;4342983;33;20190;-82
2021/07/14 01:34:37;;;;;;;;;;;;;;;;;;;;;
2021/07/14 01:37:03;;;;;;;50.15;25.30;;;;;;;;;;4344194;33;20544;-82
2021/07/14 01:39:39;;;;;;;59.63;25.73;;;;;;;;;;4342734;33;20186;-83
2021/07/14 01:42:05;;;;;;;67.95;28.17;;;;;;;;;;4344661;33;20471;-83
2021/07/14 01:44:34;;;;;;;69.80;31.05;;;;;;;;;;4342699;33;20175;-82
2021/07/14 01:47:00;;;;;;;64.75;29.30;;;;;;;;;;4343127;33;20269;-82
2021/07/14 01:49:35;;;;;;;61.08;28.90;;;;;;;;;;4342607;33;20163;-82
2021/07/14 01:52:08;;;;;;;68.43;29.73;;;;;;;;;;4343257;33;20505;-82
2021/07/14 01:54:36;;;;;;;64.85;31.45;;;;;;;;;;4342407;33;20190;-83
2021/07/14 01:57:03;;;;;;;73.65;33.08;;;;;;;;;;4342887;32;20454;-83
2021/07/14 01:59:30;;;;;;;78.12;31.48;;;;;;;;;;4342454;33;20183;-83
2021/07/14 02:02:01;;;;;;;59.70;29.00;;;;;;;;;;4342772;33;20170;-83
2021/07/14 02:04:38;;;;;;;72.90;31.00;;;;;;;;;;4369834;32;20542;-83
2021/07/14 02:07:44;;;;;;;67.35;29.73;;;;;;;;;;4404461;32;20259;-82
2021/07/14 02:10:16;;;;;;;73.20;30.12;;;;;;;;;;4345987;33;20225;-83
2021/07/14 02:12:44;;;;;;;75.05;33.35;;;;;;;;;;4357495;32;20162;-83
2021/07/14 02:15:18;;;;;;;64.62;32.28;;;;;;;;;;4405329;32;20466;-82
2021/07/14 02:17:48;;;;;;;69.25;32.20;;;;;;;;;;4404827;32;20187;-83
2021/07/14 02:20:18;;;;;;;74.60;32.13;;;;;;;;;;4404545;32;20600;-83
2021/07/14 02:22:44;;;;;;;62.85;32.35;;;;;;;;;;4404125;32;20509;-83
2021/07/14 02:25:10;;;;;;;67.45;32.08;;;;;;;;;;4404705;32;20162;-83
2021/07/14 02:27:38;;;;;;;67.40;31.25;;;;;;;;;;4404095;32;20633;-83
2021/07/14 02:30:22;;;;;;;68.82;33.15;;;;;;;;;;4391678;32;20174;-82
2021/07/14 02:32:55;;;;;;;76.87;36.70;;;;;;;;;;4404257;32;20227;-83
2021/07/14 02:35:21;;;;;;;67.05;33.58;;;;;;;;;;4404182;32;20154;-83
2021/07/14 02:37:47;;;;;;;77.43;36.92;;;;;;;;;;4404341;32;20607;-83
2021/07/14 02:40:18;;;;;;;79.05;39.38;;;;;;;;;;4404021;32;20185;-83
2021/07/14 02:42:44;;;;;;;81.55;38.17;;;;;;;;;;4404399;32;20495;-83
2021/07/14 02:45:10;;;;;;;76.25;38.78;;;;;;;;;;4404349;32;20188;-83
2021/07/14 02:47:38;;;;;;;81.03;39.40;;;;;;;;;;4404584;32;20182;-83
2021/07/14 02:50:15;;;;;;;90.85;44.90;;;;;;;;;;4404070;32;20188;-82
2021/07/14 02:52:41;;;;;;;71.07;38.08;;;;;;;;;;4404297;32;20674;-83
2021/07/14 02:55:06;;;;;;;71.85;37.38;;;;;;;;;;4404062;32;20162;-83
2021/07/14 02:57:33;;;;;;;73.10;36.67;;;;;;;;;;4404001;32;20181;-83
2021/07/14 03:00:00;;;;;;;68.87;37.03;;;;;;;;;;4405125;32;20142;-83
2021/07/14 03:02:26;;;;;;;63.70;34.70;;;;;;;;;;4403836;32;20153;-84
2021/07/14 03:04:57;;;;;;;74.97;35.33;;;;;;;;;;4405667;32;20198;-83
2021/07/14 03:07:24;;;;;;;65.43;33.25;;;;;;;;;;4403340;32;20166;-83
2021/07/14 03:09:50;;;;;;;57.90;31.20;;;;;;;;;;4406927;32;20162;-83
2021/07/14 03:12:18;;;;;;;63.42;34.95;;;;;;;;;;4408123;32;20489;-83
2021/07/14 03:15:02;;;;;;;60.17;33.95;;;;;;;;;;4407233;32;20201;-83
2021/07/14 03:17:29;;;;;;;55.15;31.27;;;;;;;;;;4407194;32;20220;-83
2021/07/14 03:19:55;;;;;;;55.90;32.80;;;;;;;;;;4406959;32;20204;-83
2021/07/14 03:22:28;;;;;;;57.90;31.30;;;;;;;;;;4406378;32;20180;-83
2021/07/14 03:24:54;;;;;;;52.47;32.08;;;;;;;;;;4408358;32;20239;-83
2021/07/14 03:27:19;;;;;;;48.38;31.08;;;;;;;;;;4407020;32;20165;-83
2021/07/14 03:30:01;;;;;;;53.22;28.40;;;;;;;;;;4401719;32;20587;-82
2021/07/14 03:32:26;;;;;;;54.05;29.90;;;;;;;;;;4345783;32;20464;-83
2021/07/14 03:34:53;;;;;;;52.50;30.23;;;;;;;;;;4342834;32;20204;-85
2021/07/14 03:37:35;;;;;;;47.67;29.70;;;;;;;;;;4331631;33;20545;-84
2021/07/14 03:40:02;;;;;;;52.60;29.65;;;;;;;;;;4329847;33;20587;-82
2021/07/14 03:42:28;;;;;;;56.22;32.40;;;;;;;;;;4329965;33;20199;-83
2021/07/14 03:44:57;;;;;;;62.60;36.15;;;;;;;;;;4329716;33;20156;-85
2021/07/14 03:47:23;;;;;;;58.78;34.35;;;;;;;;;;4329334;33;20164;-83
2021/07/14 03:49:49;;;;;;;64.45;36.00;;;;;;;;;;4329435;33;20172;-83
2021/07/14 03:52:15;;;;;;;57.00;34.08;;;;;;;;;;4329721;33;20216;-83
2021/07/14 03:54:43;;;;;;;58.55;34.83;;;;;;;;;;4329438;33;20160;-84
2021/07/14 03:57:14;;;;;;;61.80;34.58;;;;;;;;;;4329586;33;20204;-85
2021/07/14 03:59:40;;;;;;;55.83;33.70;;;;;;;;;;4329894;33;20213;-84
2021/07/14 04:02:11;;;;;;;55.05;33.75;;;;;;;;;;4328915;33;20189;-84
2021/07/14 04:04:36;;;;;;;61.92;37.03;;;;;;;;;;4329390;33;20171;-82
2021/07/14 04:07:14;;;;;;;63.60;35.63;;;;;;;;;;4329457;33;20221;-83
2021/07/14 04:09:43;;;;;;;70.97;39.58;;;;;;;;;;4324675;32;20268;-83
2021/07/14 04:12:08;;;;;;;67.78;38.03;;;;;;;;;;4329545;33;20206;-83
2021/07/14 04:14:33;;;;;;;60.08;35.83;;;;;;;;;;4329167;33;20163;-83
2021/07/14 04:16:59;;;;;;;76.40;39.55;;;;;;;;;;4328965;33;20164;-83
2021/07/14 04:19:27;;;;;;;70.70;37.13;;;;;;;;;;4328926;33;20176;-83
2021/07/14 04:21:52;;;;;;;69.87;38.13;;;;;;;;;;4328969;33;20443;-83
2021/07/14 04:24:21;;;;;;;64.97;36.17;;;;;;;;;;4328976;33;20260;-83
2021/07/14 04:26:46;;;;;;;55.05;31.37;;;;;;;;;;4328990;33;20601;-84
2021/07/14 04:29:12;;;;;;;55.65;31.90;;;;;;;;;;4328660;33;20221;-83
2021/07/14 04:31:37;;;;;;;58.70;32.13;;;;;;;;;;4328696;33;20678;-84
2021/07/14 04:34:03;;;;;;;59.30;31.20;;;;;;;;;;4328754;33;20180;-85
2021/07/14 04:36:29;;;;;;;54.40;29.87;;;;;;;;;;4328630;33;20172;-84
2021/07/14 04:38:57;;;;;;;51.28;28.42;;;;;;;;;;4328678;33;20163;-84
2021/07/14 04:41:23;;;;;;;49.92;28.85;;;;;;;;;;4328661;33;20179;-83
2021/07/14 04:43:48;;;;;;;49.63;28.70;;;;;;;;;;4316187;32;20252;-83
2021/07/14 04:46:13;;;;;;;57.28;28.25;;;;;;;;;;4328825;33;20172;-84
2021/07/14 04:48:39;;;;;;;50.22;26.80;;;;;;;;;;4328554;33;20227;-81
2021/07/14 04:51:04;;;;;;;46.42;25.08;;;;;;;;;;4328613;33;20164;-83
2021/07/14 04:53:29;;;;;;;48.50;27.25;;;;;;;;;;4328479;33;20183;-83
2021/07/14 04:55:55;;;;;;;46.03;25.15;;;;;;;;;;4328457;33;20160;-83
2021/07/14 04:58:25;;;;;;;47.33;26.35;;;;;;;;;;4328476;33;20163;-84
2021/07/14 05:00:50;;;;;;;43.55;23.70;;;;;;;;;;4329038;33;20228;-85
2021/07/14 05:03:18;;;;;;;49.83;25.23;;;;;;;;;;4328598;33;20465;-83
2021/07/14 05:05:44;;;;;;;45.15;25.85;;;;;;;;;;4328414;33;20163;-83
2021/07/14 05:08:12;;;;;;;46.88;25.75;;;;;;;;;;4329482;33;20156;-83
2021/07/14 05:10:48;;;;;;;;;;;;;;;;;;;;;
2021/07/14 05:13:16;;;;;;;49.97;25.92;;;;;;;;;;4328458;33;20209;-83
2021/07/14 05:15:44;;;;;;;44.33;24.30;;;;;;;;;;4328298;33;20156;-83
2021/07/14 05:18:26;;;;;;;43.53;25.15;;;;;;;;;;4328817;33;20159;-84
2021/07/14 05:20:51;;;;;;;38.20;23.75;;;;;;;;;;4316247;33;20212;-84
2021/07/14 05:23:18;;;;;;;32.65;20.12;;;;;;;;;;4328225;33;20914;-83
2021/07/14 05:25:43;;;;;;;34.83;19.95;;;;;;;;;;4328004;33;20156;-83
2021/07/14 05:28:09;;;;;;;33.75;19.83;;;;;;;;;;4328179;33;20205;-83
2021/07/14 05:30:36;;;;;;;26.35;16.30;;;;;;;;;;4327594;33;20288;-82
2021/07/14 05:33:04;;;;;;;27.40;17.60;;;;;;;;;;4328052;33;20519;-82
2021/07/14 05:35:29;;;;;;;29.23;18.08;;;;;;;;;;4328214;33;20215;-81
2021/07/14 05:37:54;;;;;;;33.58;18.42;;;;;;;;;;4327864;33;20241;-84
2021/07/14 05:40:23;;;;;;;30.17;18.30;;;;;;;;;;4328922;33;20163;-84
2021/07/14 05:42:51;;;;;;;24.73;16.87;;;;;;;;;;4327919;33;20225;-83
2021/07/14 05:45:16;;;;;;;26.67;17.45;;;;;;;;;;4328369;33;20547;-83
2021/07/14 05:47:48;;;;;;;29.75;17.35;;;;;;;;;;4327619;33;20191;-83
2021/07/14 05:50:13;;;;;;;31.83;18.52;;;;;;;;;;4327694;33;20171;-82
2021/07/14 05:52:41;;;;;;;30.58;18.55;;;;;;;;;;4328513;33;20159;-84
2021/07/14 05:55:09;;;;;;;29.85;18.40;;;;;;;;;;4328316;33;20168;-83
2021/07/14 05:57:35;;;;;;;32.70;17.75;;;;;;;;;;4328905;33;20144;-82
2021/07/14 06:00:00;;;;;;;35.22;18.85;;;;;;;;;;4327668;33;20215;-82
2021/07/14 06:02:26;;;;;;;27.60;17.83;;;;;;;;;;4334160;33;20175;-83
2021/07/14 06:05:00;;;;;;;37.92;20.25;;;;;;;;;;4342802;33;20454;-83
2021/07/14 06:07:27;;;;;;;33.53;19.20;;;;;;;;;;4342780;33;20233;-83
2021/07/14 06:09:53;;;;;;;34.72;18.42;;;;;;;;;;4342171;33;20205;-83
2021/07/14 06:12:18;;;;;;;38.58;19.77;;;;;;;;;;4342703;33;20163;-83
2021/07/14 06:14:45;;;;;;;36.95;19.83;;;;;;;;;;4342215;33;20221;-84
2021/07/14 06:17:13;;;;;;;37.65;19.65;;;;;;;;;;4342261;33;20480;-83
2021/07/14 06:19:41;;;;;;;37.78;19.55;;;;;;;;;;4342254;33;20162;-83
2021/07/14 06:22:07;;;;;;;39.08;19.35;;;;;;;;;;4330436;33;20164;-81
2021/07/14 06:24:32;;;;;;;35.03;19.42;;;;;;;;;;4342075;33;20159;-83
2021/07/14 06:26:57;;;;;;;33.42;18.92;;;;;;;;;;4339265;33;20218;-82
2021/07/14 06:29:23;;;;;;;32.50;18.05;;;;;;;;;;4334413;33;20224;-82
2021/07/14 06:31:51;;;;;;;31.52;18.77;;;;;;;;;;4335683;33;20147;-82
2021/07/14 06:34:17;;;;;;;32.55;18.95;;;;;;;;;;4327442;32;20160;-83
2021/07/14 06:36:49;;;;;;;36.20;19.98;;;;;;;;;;4327789;33;20172;-82
2021/07/14 06:39:14;;;;;;;37.55;19.17;;;;;;;;;;4342536;33;20688;-82
2021/07/14 06:41:40;;;;;;;35.08;20.88;;;;;;;;;;4342555;32;20159;-81
2021/07/14 06:44:05;;;;;;;32.70;18.35;;;;;;;;;;4344519;32;20168;-80
2021/07/14 06:46:37;;;;;;;31.00;18.02;;;;;;;;;;4345222;33;20206;-82
2021/07/14 06:49:02;;;;;;;34.20;18.92;;;;;;;;;;4345387;32;20159;-82
2021/07/14 06:51:28;;;;;;;33.05;18.30;;;;;;;;;;4347164;33;20232;-85
2021/07/14 06:53:53;;;;;;;31.98;17.90;;;;;;;;;;4349191;32;20189;-85
2021/07/14 06:56:19;;;;;;;27.90;17.62;;;;;;;;;;4347294;32;20194;-84
2021/07/14 06:58:44;;;;;;;30.52;17.83;;;;;;;;;;4346233;32;20646;-84
2021/07/14 07:01:10;;;;;;;26.67;15.30;;;;;;;;;;4345329;32;20182;-83
2021/07/14 07:03:35;;;;;;;22.40;14.68;;;;;;;;;;4344319;32;20212;-81
2021/07/14 07:06:02;;;;;;;25.92;15.35;;;;;;;;;;4344693;33;20441;-81
2021/07/14 07:08:30;;;;;;;27.48;16.33;;;;;;;;;;4344269;33;20589;-84
2021/07/14 07:10:55;;;;;;;24.83;15.55;;;;;;;;;;4344272;33;20229;-84
2021/07/14 07:13:22;;;;;;;25.37;14.73;;;;;;;;;;4345060;33;20226;-82
2021/07/14 07:15:48;;;;;;;22.20;14.15;;;;;;;;;;4344236;32;20163;-83
2021/07/14 07:18:14;;;;;;;25.00;14.13;;;;;;;;;;4344479;33;20521;-83
2021/07/14 07:20:40;;;;;;;25.73;15.50;;;;;;;;;;4345984;33;20167;-84
2021/07/14 07:23:05;;;;;;;25.25;16.20;;;;;;;;;;4346452;33;20152;-82
2021/07/14 07:25:34;;;;;;;28.00;16.27;;;;;;;;;;4345675;33;20219;-82
2021/07/14 07:28:03;;;;;;;29.25;16.42;;;;;;;;;;4345822;33;20159;-82
2021/07/14 07:30:29;;;;;;;29.45;16.35;;;;;;;;;;4344974;33;20164;-82
2021/07/14 07:32:54;;;;;;;27.83;15.32;;;;;;;;;;4344935;33;20618;-82
2021/07/14 07:35:20;;;;;;;26.00;15.05;;;;;;;;;;4345080;33;20202;-82
2021/07/14 07:37:47;;;;;;;23.70;14.93;;;;;;;;;;4345351;33;20189;-82
2021/07/14 07:40:13;;;;;;;25.83;14.70;;;;;;;;;;4332230;33;20179;-82
2021/07/14 07:42:39;;;;;;;21.87;13.60;;;;;;;;;;4330415;33;20159;-82
2021/07/14 07:45:09;;;;;;;19.60;13.23;;;;;;;;;;4330127;33;20168;-82
2021/07/14 07:47:37;;;;;;;18.40;12.25;;;;;;;;;;4329769;33;20178;-82
2021/07/14 07:50:03;;;;;;;19.77;12.65;;;;;;;;;;4329731;33;20218;-81
2021/07/14 07:52:28;;;;;;;21.50;13.13;;;;;;;;;;4342333;33;20631;-81
2021/07/14 07:55:01;;;;;;;20.27;12.93;;;;;;;;;;4344139;33;20179;-82
2021/07/14 07:57:28;;;;;;;20.23;13.43;;;;;;;;;;4343977;33;20206;-83
2021/07/14 07:59:53;;;;;;;23.17;12.60;;;;;;;;;;4343997;32;20155;-83
2021/07/14 08:02:18;;;;;;;23.58;13.95;;;;;;;;;;4343790;33;20641;-83
2021/07/14 08:04:44;;;;;;;20.75;12.15;;;;;;;;;;4344073;33;20182;-82
2021/07/14 08:07:09;;;;;;;20.90;12.35;;;;;;;;;;4344218;33;20182;-82
2021/07/14 08:09:37;;;;;;;20.62;12.35;;;;;;;;;;4343963;33;20263;-84
2021/07/14 08:12:02;;;;;;;17.60;11.20;;;;;;;;;;4344331;33;20211;-82
2021/07/14 08:14:31;;;;;;;19.30;11.45;;;;;;;;;;4343473;33;20279;-82
2021/07/14 08:17:05;;;;;;;19.98;12.32;;;;;;;;;;4343934;33;20264;-82
2021/07/14 08:19:30;;;;;;;16.98;11.20;;;;;;;;;;4344538;33;20158;-82
2021/07/14 08:21:59;;;;;;;20.25;11.27;;;;;;;;;;4343753;33;20193;-82
2021/07/14 08:24:24;;;;;;;18.05;10.30;;;;;;;;;;4343692;33;20212;-81
2021/07/14 08:26:49;;;;;;;19.02;12.10;;;;;;;;;;4343826;33;20477;-82
2021/07/14 08:29:18;;;;;;;16.85;10.25;;;;;;;;;;4334224;33;20209;-81
2021/07/14 08:31:43;;;;;;;20.30;13.10;;;;;;;;;;4340202;33;20163;-81
2021/07/14 08:34:11;;;;;;;17.25;11.05;;;;;;;;;;4343629;33;20160;-82
2021/07/14 08:36:42;;;;;;;16.45;9.55;;;;;;;;;;4343341;33;20162;-83
2021/07/14 08:39:09;;;;;;;20.88;9.32;;;;;;;;;;4343920;33;20164;-82
2021/07/14 08:41:37;;;;;;;15.20;9.80;;;;;;;;;;4343840;33;20163;-83
2021/07/14 08:44:04;;;;;;;17.35;10.07;;;;;;;;;;4344327;33;20140;-82
2021/07/14 08:46:30;;;;;;;14.52;9.38;;;;;;;;;;4342988;33;20193;-83
2021/07/14 08:48:55;;;;;;;17.95;9.07;;;;;;;;;;4340470;33;20175;-81
2021/07/14 08:51:21;;;;;;;13.82;8.70;;;;;;;;;;4340229;33;20532;-81
2021/07/14 08:53:47;;;;;;;10.80;7.47;;;;;;;;;;4339270;33;20221;-82
2021/07/14 08:56:13;;;;;;;12.43;7.65;;;;;;;;;;4342987;33;20163;-83
2021/07/14 08:58:38;;;;;;;15.32;8.77;;;;;;;;;;4343482;33;20229;-81
2021/07/14 09:01:03;;;;;;;15.80;8.75;;;;;;;;;;4337724;33;20190;-82
2021/07/14 09:03:29;;;;;;;17.42;9.73;;;;;;;;;;4336217;33;20246;-82
2021/07/14 09:05:54;;;;;;;16.75;9.55;;;;;;;;;;4332758;33;20450;-82
2021/07/14 09:08:22;;;;;;;14.95;8.82;;;;;;;;;;4328183;33;20176;-82
2021/07/14 09:10:51;;;;;;;18.17;9.20;;;;;;;;;;4328443;33;20187;-82
2021/07/14 09:13:33;;;;;;;14.93;9.13;;;;;;;;;;4332174;33;20601;-83
2021/07/14 09:16:02;;;;;;;15.07;8.07;;;;;;;;;;4339550;32;20259;-82
2021/07/14 09:18:29;;;;;;;14.90;8.32;;;;;;;;;;4328976;33;20278;-83
2021/07/14 09:20:54;;;;;;;15.23;8.18;;;;;;;;;;4338394;32;20256;-81
2021/07/14 09:23:21;;;;;;;13.38;7.22;;;;;;;;;;4342528;33;20609;-81
2021/07/14 09:25:47;;;;;;;15.77;8.45;;;;;;;;;;4342723;33;20159;-82
2021/07/14 09:28:24;;;;;;;13.50;7.45;;;;;;;;;;4342315;33;20230;-83
2021/07/14 09:31:02;;;;;;;10.90;7.50;;;;;;;;;;4329230;32;20186;-82
2021/07/14 09:33:34;;;;;;;10.30;7.12;;;;;;;;;;4328050;33;20172;-83
2021/07/14 09:36:00;;;;;;;10.50;6.03;;;;;;;;;;4341254;33;20509;-82
2021/07/14 09:38:27;;;;;;;8.40;5.62;;;;;;;;;;4339163;33;20210;-81
2021/07/14 09:41:04;;;;;;;;;;;;;;;;;;;;;
2021/07/14 09:43:33;;;;;;;10.23;6.25;;;;;;;;;;4342649;33;20146;-81
2021/07/14 09:46:06;;;;;;;11.82;6.78;;;;;;;;;;4342194;33;20206;-83
2021/07/14 09:48:42;;;;;;;10.93;7.50;;;;;;;;;;4342451;33;20271;-83
2021/07/14 09:51:14;;;;;;;14.38;6.82;;;;;;;;;;4343684;33;20155;-83
2021/07/14 09:54:01;;;;;;;10.70;7.07;;;;;;;;;;4342518;33;20234;-82
2021/07/14 09:56:28;;;;;;;9.10;6.60;;;;;;;;;;4323670;33;20196;-83
2021/07/14 09:59:16;;;;;;;9.07;6.35;;;;;;;;;;4331141;33;20168;-82
2021/07/14 10:01:45;;;;;;;13.85;6.57;;;;;;;;;;4341234;33;20214;-81
2021/07/14 10:04:12;;;;;;;8.07;5.85;;;;;;;;;;4341991;33;20210;-82
2021/07/14 10:06:40;;;;;;;9.93;6.25;;;;;;;;;;4342143;33;20219;-82
2021/07/14 10:09:06;;;;;;;8.77;5.80;;;;;;;;;;4341616;33;20272;-82
2021/07/14 10:11:37;;;;;;;8.05;5.70;;;;;;;;;;4342035;32;20588;-82
2021/07/14 10:14:02;;;;;;;9.18;6.57;;;;;;;;;;4341273;33;20572;-82
2021/07/14 10:16:29;;;;;;;12.73;6.90;;;;;;;;;;4335309;33;20566;-81
2021/07/14 10:18:54;;;;;;;10.68;6.57;;;;;;;;;;4339535;33;20160;-82
2021/07/14 10:21:19;;;;;;;9.50;6.35;;;;;;;;;;4341372;33;20216;-81
2021/07/14 10:23:54;;;;;;;9.43;6.62;;;;;;;;;;4342161;33;20172;-82
2021/07/14 10:26:20;;;;;;;11.00;7.28;;;;;;;;;;4342860;33;20452;-84
2021/07/14 10:28:48;;;;;;;9.48;6.40;;;;;;;;;;4342153;33;20194;-82
2021/07/14 10:31:18;;;;;;;9.90;6.20;;;;;;;;;;4343557;33;20178;-82
2021/07/14 10:33:43;;;;;;;9.45;6.55;;;;;;;;;;4342342;33;20193;-82
2021/07/14 10:36:10;;;;;;;8.73;6.30;;;;;;;;;;4341751;33;20162;-82
2021/07/14 10:38:42;;;;;;;8.98;6.60;;;;;;;;;;4341999;33;20152;-84
2021/07/14 10:41:09;;;;;;;8.35;6.50;;;;;;;;;;4341985;33;20186;-81
2021/07/14 10:43:34;;;;;;;10.15;6.72;;;;;;;;;;4326914;33;20212;-83
2021/07/14 10:46:08;;;;;;;11.73;6.72;;;;;;;;;;4342267;33;20199;-82
2021/07/14 10:48:33;;;;;;;7.22;5.75;;;;;;;;;;4342641;33;20175;-83
2021/07/14 10:51:13;;;;;;;10.88;6.25;;;;;;;;;;4342315;33;20205;-83
2021/07/14 10:53:39;;;;;;;8.98;5.75;;;;;;;;;;4342522;32;20213;-82
2021/07/14 10:56:14;;;;;;;9.80;6.62;;;;;;;;;;4342715;33;20163;-81
2021/07/14 10:58:41;;;;;;;11.93;7.07;;;;;;;;;;4343707;33;20166;-82
2021/07/14 11:01:12;;;;;;;9.90;6.62;;;;;;;;;;4342271;32;20194;-82
2021/07/14 11:03:53;;;;;;;12.02;6.87;;;;;;;;;;4342494;33;20183;-83
2021/07/14 11:06:28;;;;;;;11.85;7.75;;;;;;;;;;4343642;32;20604;-83
2021/07/14 11:08:54;;;;;;;11.38;7.30;;;;;;;;;;4342569;33;20163;-82
2021/07/14 11:11:29;;;;;;;11.12;6.90;;;;;;;;;;4341416;33;20502;-82
2021/07/14 11:14:08;;;;;;;11.32;7.07;;;;;;;;;;4342435;32;20608;-82
2021/07/14 11:16:35;;;;;;;11.65;8.10;;;;;;;;;;4340532;33;20178;-79
2021/07/14 11:19:00;;;;;;;11.48;7.30;;;;;;;;;;4341049;33;20198;-81
2021/07/14 11:21:55;;;;;;;11.27;6.32;;;;;;;;;;4341827;33;20151;-82
2021/07/14 11:24:39;;;;;;;8.35;6.43;;;;;;;;;;4328978;33;20159;-81
2021/07/14 11:27:38;;;;;;;8.50;6.40;;;;;;;;;;4332346;33;20147;-83
2021/07/14 11:30:09;;;;;;;11.00;6.62;;;;;;;;;;4328163;33;20160;-81
2021/07/14 11:32:43;;;;;;;10.18;6.60;;;;;;;;;;4334547;33;20152;-84
2021/07/14 11:35:20;;;;;;;14.30;6.85;;;;;;;;;;4343746;32;20189;-82
2021/07/14 11:38:17;;;;;;;15.38;7.85;;;;;;;;;;4345086;33;20201;-82
2021/07/14 11:40:45;;;;;;;14.57;7.78;;;;;;;;;;4350827;32;20193;-82
2021/07/14 11:43:11;;;;;;;11.80;7.22;;;;;;;;;;4406219;32;20154;-82
2021/07/14 11:45:37;;;;;;;12.05;7.72;;;;;;;;;;4406204;32;20519;-82
2021/07/14 11:48:05;;;;;;;10.85;7.40;;;;;;;;;;4405524;32;20240;-82
2021/07/14 11:50:43;;;;;;;8.70;6.95;;;;;;;;;;4405367;32;20163;-82
2021/07/14 11:53:41;;;;;;;10.65;7.12;;;;;;;;;;4406382;32;20523;-82
2021/07/14 11:56:35;;;;;;;;;;;;;;;;;;;;;
2021/07/14 12:02:04;;;;;;;12.15;8.20;;;;;;;;;;4357867;32;20226;-82
2021/07/14 12:04:31;;;;;;;13.40;8.60;;;;;;;;;;4407131;32;20166;-82
2021/07/14 12:07:05;;;;;;;13.98;8.02;;;;;;;;;;4407560;32;20436;-82
2021/07/14 12:09:34;;;;;;;14.75;8.82;;;;;;;;;;4405312;32;20286;-83
2021/07/14 12:12:16;;;;;;;15.95;9.25;;;;;;;;;;4407836;32;20150;-81
2021/07/14 12:14:42;;;;;;;14.20;9.52;;;;;;;;;;4405649;32;20185;-82
2021/07/14 12:17:08;;;;;;;15.35;9.15;;;;;;;;;;4405753;32;20159;-81
2021/07/14 12:19:35;;;;;;;13.15;9.10;;;;;;;;;;4405719;32;20162;-82
2021/07/14 12:25:08;;;;;;;13.80;8.77;;;;;;;;;;4390181;32;20619;-82
2021/07/14 12:27:36;;;;;;;14.35;9.40;;;;;;;;;;4403558;32;20226;-82
2021/07/14 12:30:05;;;;;;;13.38;9.48;;;;;;;;;;4405517;32;20158;-82
2021/07/14 12:32:43;;;;;;;13.18;7.25;;;;;;;;;;4407720;32;20201;-82
2021/07/14 12:35:23;;;;;;;12.77;7.32;;;;;;;;;;4406025;32;20205;-82
2021/07/14 12:37:58;;;;;;;9.73;7.28;;;;;;;;;;4405997;32;20193;-84
2021/07/14 12:40:25;;;;;;;11.38;7.62;;;;;;;;;;4405013;32;20161;-80
2021/07/14 12:42:55;;;;;;;11.63;6.95;;;;;;;;;;4405620;32;20158;-83
2021/07/14 12:45:42;;;;;;;10.48;7.10;;;;;;;;;;4405282;32;20166;-82
2021/07/14 12:48:17;;;;;;;11.27;7.12;;;;;;;;;;4406539;32;20184;-82
2021/07/14 12:50:52;;;;;;;11.45;6.85;;;;;;;;;;4405864;32;20157;-82
2021/07/14 12:53:20;;;;;;;11.15;7.20;;;;;;;;;;4405723;32;20154;-83
2021/07/14 12:55:46;;;;;;;11.65;7.25;;;;;;;;;;4393380;32;20190;-79
2021/07/14 12:58:57;;;;;;;12.32;7.50;;;;;;;;;;4405887;32;20212;-84
2021/07/14 13:01:05;;;;;;;12.10;7.78;;;;;;;;;;4402980;32;20170;-83
2021/07/14 13:03:36;;;;;;;14.00;7.87;;;;;;;;;;4393264;32;20619;-83
2021/07/14 13:06:17;;;;;;;;;;;;;;;;;;;;;
2021/07/14 13:08:51;;;;;;;11.30;7.68;;;;;;;;;;4406660;32;20188;-83
2021/07/14 13:11:16;;;;;;;12.65;8.27;;;;;;;;;;4406261;32;20223;-83
2021/07/14 13:13:48;;;;;;;14.35;8.88;;;;;;;;;;4405030;32;20502;-83
2021/07/14 13:16:22;;;;;;;14.25;8.38;;;;;;;;;;4344692;32;20155;-83
2021/07/14 13:18:59;;;;;;;13.40;8.07;;;;;;;;;;4345158;33;20135;-84
2021/07/14 13:21:26;;;;;;;16.17;8.32;;;;;;;;;;4343234;33;20173;-83
2021/07/14 13:24:06;;;;;;;12.82;8.57;;;;;;;;;;4342638;33;20174;-83
2021/07/14 13:26:31;;;;;;;10.73;7.65;;;;;;;;;;4342786;33;20186;-83
2021/07/14 13:29:10;;;;;;;15.63;8.20;;;;;;;;;;4342753;33;20152;-84
2021/07/14 13:31:37;;;;;;;12.43;8.35;;;;;;;;;;4342471;33;20186;-84
2021/07/14 13:34:11;;;;;;;11.80;8.10;;;;;;;;;;4342275;33;20159;-82
2021/07/14 13:36:37;;;;;;;13.65;8.23;;;;;;;;;;4343737;33;20200;-83
2021/07/14 13:39:14;;;;;;;13.82;7.47;;;;;;;;;;4343288;32;20163;-82
2021/07/14 13:41:40;;;;;;;13.23;8.30;;;;;;;;;;4343785;33;20154;-82
2021/07/14 13:44:12;;;;;;;12.37;8.27;;;;;;;;;;4342473;33;20156;-83
2021/07/14 13:46:46;;;;;;;16.92;9.00;;;;;;;;;;4342972;32;20178;-83
2021/07/14 13:49:12;;;;;;;15.00;9.15;;;;;;;;;;4343004;32;20163;-83
2021/07/14 13:51:51;;;;;;;12.52;8.55;;;;;;;;;;4342216;32;20588;-83
2021/07/14 13:54:38;;;;;;;16.55;9.95;;;;;;;;;;4342402;32;20618;-82
2021/07/14 13:57:09;;;;;;;19.87;10.65;;;;;;;;;;4343284;33;20238;-83
2021/07/14 13:59:51;;;;;;;20.92;10.45;;;;;;;;;;4342609;32;20174;-82
2021/07/14 14:02:19;;;;;;;17.87;9.98;;;;;;;;;;4342646;33;20182;-82
2021/07/14 14:04:44;;;;;;;15.73;10.10;;;;;;;;;;4342389;33;20160;-81
2021/07/14 14:07:30;;;;;;;16.50;10.85;;;;;;;;;;4342602;32;20205;-83
2021/07/14 14:10:16;;;;;;;18.15;11.35;;;;;;;;;;4342298;32;20205;-82
2021/07/14 14:12:42;;;;;;;12.70;9.13;;;;;;;;;;4332868;33;20166;-83
2021/07/14 14:15:12;;;;;;;21.62;11.27;;;;;;;;;;4342359;33;20164;-83
2021/07/14 14:17:49;;;;;;;20.52;11.02;;;;;;;;;;4342547;33;20179;-84
2021/07/14 14:20:16;;;;;;;19.67;11.18;;;;;;;;;;4342511;33;20535;-85
2021/07/14 14:22:42;;;;;;;18.73;11.30;;;;;;;;;;4342054;32;20521;-82
2021/07/14 14:25:14;;;;;;;20.27;12.35;;;;;;;;;;4343419;33;20181;-83
2021/07/14 14:30:17;;;;;;;21.37;11.73;;;;;;;;;;4343466;33;20142;-84
2021/07/14 14:32:44;;;;;;;24.77;13.60;;;;;;;;;;4342272;33;20608;-83
2021/07/14 14:35:09;;;;;;;23.80;13.13;;;;;;;;;;4342201;33;20720;-82
2021/07/14 14:37:34;;;;;;;21.73;13.25;;;;;;;;;;4342949;33;20167;-83
2021/07/14 14:40:00;;;;;;;22.77;12.70;;;;;;;;;;4341967;33;20159;-83
2021/07/14 14:42:25;;;;;;;21.17;12.48;;;;;;;;;;4342065;33;20163;-83
2021/07/14 14:44:50;;;;;;;21.25;12.63;;;;;;;;;;4342382;33;20163;-80
2021/07/14 14:47:15;;;;;;;22.35;14.23;;;;;;;;;;4342311;33;20240;-83
2021/07/14 14:49:41;;;;;;;25.25;12.77;;;;;;;;;;4341673;33;20171;-82
2021/07/14 14:52:06;;;;;;;25.85;13.48;;;;;;;;;;4341438;33;20171;-80
2021/07/14 14:54:31;;;;;;;22.13;13.65;;;;;;;;;;4341754;32;20592;-82
2021/07/14 14:56:57;;;;;;;28.87;14.65;;;;;;;;;;4341817;32;20593;-83
2021/07/14 14:59:26;;;;;;;21.20;14.13;;;;;;;;;;4341888;33;20227;-81
2021/07/14 15:01:51;;;;;;;23.35;14.52;;;;;;;;;;4343222;33;20166;-81
2021/07/14 15:04:19;;;;;;;23.52;14.63;;;;;;;;;;4343842;33;20501;-82